Terminal Aerodrome Forecast
Issued by NWS

Home | Current Version | Previous Version | Text Only | Print | Product List | Glossary On
Versions: 1 2 3 4 5 6 7 8 9 10 11 12 13 14 15 16 17 18 19
000
FTUS46 KLOX 190538
TAFPRB
TAF
KPRB 190538Z 1906/2006 24010KT P6SM SCT080
     FM190900 30006KT P6SM -SHRA SCT020 OVC040
     FM191300 32006KT P6SM BKN025
     FM191800 32012KT P6SM SCT250
     FM192300 30015G25KT P6SM SKC
     FM200300 30008KT P6SM SKC=

USA.gov is the U.S. government's official web portal to all federal, state and local government web resources and services.